Time;durP1;ratioP1;P1;durP2;ratioP2;P2;SDS_P1;SDS_P2;PMS_P1;PMS_P2;Temp;Humidity;BMP_temperature;BMP_pressure;BME280_temperature;BME280_humidity;BME280_pressure;Samples;Min_cycle;Max_cycle;Signal;HPM_P1;HPM_P2
2022/05/19 00:02:32;;;;;;;11.57;1.98;;;16.20;86.80;;;;;;6126199;29;20635;-67
2022/05/19 00:05:38;;;;;;;7.97;2.25;;;16.10;84.40;;;;;;6127266;29;20208;-67
2022/05/19 00:08:46;;;;;;;7.65;2.40;;;16.20;81.20;;;;;;6109334;29;20240;-69
2022/05/19 00:11:53;;;;;;;7.53;2.20;;;16.20;81.20;;;;;;6127922;29;20204;-69
2022/05/19 00:14:59;;;;;;;13.70;2.00;;;16.20;81.90;;;;;;6126735;29;20212;-68
2022/05/19 00:18:04;;;;;;;15.02;2.20;;;16.10;82.90;;;;;;6111112;29;20246;-66
2022/05/19 00:21:12;;;;;;;15.20;2.13;;;16.10;82.80;;;;;;6143585;29;20204;-67
2022/05/19 00:24:19;;;;;;;11.43;2.20;;;16.20;80.40;;;;;;6131387;29;20296;-67
2022/05/19 00:27:25;;;;;;;13.93;2.40;;;16.10;78.10;;;;;;6139669;29;20234;-68
2022/05/19 00:30:30;;;;;;;24.25;2.33;;;16.20;78.60;;;;;;6126309;29;20227;-69
2022/05/19 00:33:36;;;;;;;29.10;2.47;;;16.20;77.70;;;;;;6125357;29;20232;-68
2022/05/19 00:36:42;;;;;;;15.55;2.53;;;16.20;77.60;;;;;;6128511;29;20215;-68
2022/05/19 00:39:50;;;;;;;7.38;2.05;;;16.20;76.90;;;;;;6129482;29;20254;-68
2022/05/19 00:42:55;;;;;;;12.25;2.50;;;16.30;77.80;;;;;;6109651;29;20239;-69
2022/05/19 00:46:08;;;;;;;12.02;2.45;;;16.20;77.70;;;;;;6125492;29;20207;-68
2022/05/19 00:49:18;;;;;;;6.63;2.30;;;16.20;78.10;;;;;;6124388;29;20441;-68
2022/05/19 00:52:28;;;;;;;10.48;2.00;;;16.20;77.60;;;;;;6124706;29;20319;-70
2022/05/19 00:55:39;;;;;;;12.13;2.00;;;16.30;75.40;;;;;;6124833;29;20212;-68
2022/05/19 00:58:49;;;;;;;3.22;1.70;;;16.30;75.50;;;;;;6124349;29;20250;-68
2022/05/19 01:01:57;;;;;;;12.20;2.30;;;16.30;75.20;;;;;;6124765;29;20208;-69
2022/05/19 01:05:06;;;;;;;8.05;1.92;;;16.30;73.90;;;;;;6127750;29;20326;-67
2022/05/19 01:08:20;;;;;;;6.85;1.80;;;16.30;74.80;;;;;;6128391;29;20240;-68
2022/05/19 01:11:27;;;;;;;7.22;1.88;;;16.20;75.00;;;;;;6129366;29;20236;-69
2022/05/19 01:14:33;;;;;;;14.93;2.78;;;16.20;74.80;;;;;;6129085;29;20243;-69
2022/05/19 01:17:38;;;;;;;20.92;3.20;;;16.20;76.30;;;;;;6128223;29;20224;-69
2022/05/19 01:20:45;;;;;;;24.23;3.30;;;16.20;77.50;;;;;;6128864;29;20208;-69
2022/05/19 01:24:11;;;;;;;19.65;4.20;;;16.10;77.20;;;;;;6127831;29;20235;-69
2022/05/19 01:27:18;;;;;;;27.50;3.53;;;16.10;75.90;;;;;;6128394;29;20246;-69
2022/05/19 01:30:24;;;;;;;16.73;3.10;;;16.10;75.10;;;;;;6128879;29;20232;-67
2022/05/19 01:33:35;;;;;;;16.02;3.70;;;16.00;75.90;;;;;;6128809;29;20240;-68
2022/05/19 01:36:41;;;;;;;10.82;2.60;;;16.00;78.10;;;;;;6129436;29;20683;-68
2022/05/19 01:39:56;;;;;;;12.52;2.60;;;16.00;76.40;;;;;;6128937;29;20270;-67
2022/05/19 01:43:13;;;;;;;9.05;1.90;;;16.00;75.90;;;;;;6128757;28;20240;-68
2022/05/19 01:46:27;;;;;;;3.25;1.70;;;16.00;74.90;;;;;;6129360;29;20208;-68
2022/05/19 01:49:38;;;;;;;4.05;1.90;;;16.10;74.80;;;;;;6128693;29;20336;-67
2022/05/19 01:52:49;;;;;;;4.80;1.60;;;16.10;74.30;;;;;;6111509;29;20243;-68
2022/05/19 01:56:00;;;;;;;10.48;1.98;;;16.10;74.50;;;;;;6129805;29;20231;-67
2022/05/19 01:59:15;;;;;;;4.55;1.60;;;16.10;74.70;;;;;;6128602;29;20246;-68
2022/05/19 02:02:27;;;;;;;2.72;1.33;;;16.10;74.30;;;;;;6127874;29;20236;-68
2022/05/19 02:05:40;;;;;;;4.47;1.98;;;16.00;74.80;;;;;;6112088;29;20544;-69
2022/05/19 02:08:48;;;;;;;6.18;1.90;;;16.00;75.50;;;;;;6127835;29;20239;-68
2022/05/19 02:11:56;;;;;;;9.05;1.88;;;16.00;76.10;;;;;;6127375;29;20228;-68
2022/05/19 02:15:07;;;;;;;2.97;1.98;;;16.00;76.30;;;;;;6128428;29;20208;-68
2022/05/19 02:18:20;;;;;;;8.57;2.30;;;15.90;76.90;;;;;;6127244;29;20228;-66
2022/05/19 02:21:26;;;;;;;14.60;2.35;;;16.00;77.00;;;;;;6128744;29;20223;-67
2022/05/19 02:24:35;;;;;;;6.40;1.95;;;16.00;77.80;;;;;;6127431;29;20240;-68
2022/05/19 02:27:49;;;;;;;5.13;2.00;;;15.90;78.60;;;;;;6127334;29;20242;-69
2022/05/19 02:30:56;;;;;;;1.40;1.40;;;15.90;79.10;;;;;;6127644;29;20231;-68
2022/05/19 02:34:02;;;;;;;1.80;1.70;;;15.90;80.00;;;;;;6127049;29;20551;-67
2022/05/19 02:37:08;;;;;;;2.35;1.55;;;15.90;80.80;;;;;;6127361;29;20596;-68
2022/05/19 02:40:19;;;;;;;4.40;1.50;;;15.80;81.50;;;;;;6127660;29;20223;-69
2022/05/19 02:43:25;;;;;;;3.22;1.60;;;15.80;82.50;;;;;;6110748;29;20240;-67
2022/05/19 02:46:31;;;;;;;2.97;1.75;;;15.80;83.70;;;;;;6110854;29;20215;-68
2022/05/19 02:49:37;;;;;;;2.80;2.15;;;15.80;84.70;;;;;;6127325;29;20307;-68
2022/05/19 02:52:42;;;;;;;7.22;1.70;;;15.60;85.70;;;;;;6127156;29;20235;-68
2022/05/19 02:55:48;;;;;;;2.00;1.80;;;15.60;85.90;;;;;;6110779;29;20216;-68
2022/05/19 02:58:55;;;;;;;3.05;1.80;;;15.60;86.60;;;;;;6125875;29;20274;-68
2022/05/19 03:02:02;;;;;;;5.20;2.15;;;15.60;87.10;;;;;;6124164;29;20208;-68
2022/05/19 03:05:12;;;;;;;2.22;2.00;;;15.60;88.20;;;;;;6102426;29;20204;-69
2022/05/19 03:08:18;;;;;;;2.47;2.03;;;15.50;88.10;;;;;;6126748;29;20244;-68
2022/05/19 03:11:23;;;;;;;2.00;1.90;;;15.50;88.70;;;;;;6127120;29;20582;-68
2022/05/19 03:14:30;;;;;;;5.80;1.85;;;15.50;89.30;;;;;;6127295;29;20331;-69
2022/05/19 03:17:37;;;;;;;3.60;1.67;;;15.50;89.80;;;;;;6126907;29;20228;-70
2022/05/19 03:20:43;;;;;;;3.00;1.88;;;15.50;90.30;;;;;;6126833;29;20204;-67
2022/05/19 03:23:49;;;;;;;1.80;1.80;;;15.40;90.90;;;;;;6126748;29;20242;-66
2022/05/19 03:26:54;;;;;;;2.08;1.70;;;15.40;91.30;;;;;;6126460;29;20209;-68
2022/05/19 03:29:59;;;;;;;1.80;1.70;;;15.40;91.70;;;;;;6126370;29;20523;-68
2022/05/19 03:33:06;;;;;;;2.17;1.88;;;15.30;92.40;;;;;;6126152;29;20235;-69
2022/05/19 03:36:12;;;;;;;1.90;1.80;;;15.30;92.70;;;;;;6127040;29;20203;-68
2022/05/19 03:39:18;;;;;;;3.10;1.67;;;15.30;93.40;;;;;;6127112;29;20551;-68
2022/05/19 03:42:23;;;;;;;7.13;2.00;;;15.30;93.30;;;;;;6109313;29;20247;-68
2022/05/19 03:45:28;;;;;;;2.20;2.10;;;15.30;93.90;;;;;;6126602;29;20219;-68
2022/05/19 03:48:36;;;;;;;5.10;1.67;;;15.30;94.20;;;;;;6126212;29;20228;-68
2022/05/19 03:51:43;;;;;;;14.10;2.70;;;15.30;94.40;;;;;;6126283;29;20583;-69
2022/05/19 03:54:50;;;;;;;5.15;1.88;;;15.30;94.70;;;;;;6125972;29;20579;-68
2022/05/19 03:57:56;;;;;;;2.30;2.10;;;15.40;94.60;;;;;;6126156;29;20710;-67
2022/05/19 04:01:04;;;;;;;1.77;1.77;;;15.40;95.10;;;;;;6126322;29;20634;-66
2022/05/19 04:04:12;;;;;;;2.45;1.80;;;15.40;95.30;;;;;;6126463;29;20239;-67
2022/05/19 04:07:19;;;;;;;2.35;2.00;;;15.40;95.50;;;;;;6128935;29;20238;-68
2022/05/19 04:10:24;;;;;;;2.03;1.92;;;15.30;96.30;;;;;;6130908;29;20208;-67
2022/05/19 04:13:30;;;;;;;2.47;2.00;;;15.30;96.30;;;;;;6128008;29;20239;-68
2022/05/19 04:16:36;;;;;;;2.40;2.20;;;15.30;96.70;;;;;;6126508;29;20208;-66
2022/05/19 04:19:42;;;;;;;2.03;2.00;;;15.30;97.00;;;;;;6125983;29;20238;-68
2022/05/19 04:22:49;;;;;;;3.88;1.90;;;15.30;96.90;;;;;;6126276;29;20703;-68
2022/05/19 04:25:55;;;;;;;2.00;2.00;;;15.30;97.10;;;;;;6126645;29;20207;-68
2022/05/19 04:29:01;;;;;;;5.65;2.50;;;15.30;97.20;;;;;;6109177;29;20236;-68
2022/05/19 04:32:08;;;;;;;2.40;2.20;;;15.30;97.90;;;;;;6126261;29;20616;-68
2022/05/19 04:35:16;;;;;;;4.97;2.22;;;15.20;98.10;;;;;;6109720;29;20212;-68
2022/05/19 04:38:21;;;;;;;5.55;2.25;;;15.20;98.30;;;;;;6125755;29;20227;-68
2022/05/19 04:41:27;;;;;;;6.55;2.58;;;15.30;98.50;;;;;;6130376;29;20208;-67
2022/05/19 04:44:32;;;;;;;11.57;2.28;;;15.30;98.70;;;;;;6130226;29;20239;-68
2022/05/19 04:47:37;;;;;;;3.65;2.22;;;15.30;98.60;;;;;;6130630;29;20234;-69
2022/05/19 04:50:45;;;;;;;2.25;2.08;;;15.20;99.00;;;;;;6130671;29;20208;-68
2022/05/19 04:53:51;;;;;;;2.80;2.10;;;15.30;99.00;;;;;;6129488;29;20594;-67
2022/05/19 04:56:56;;;;;;;5.03;2.35;;;15.30;98.90;;;;;;6129697;29;20208;-67
2022/05/19 05:00:02;;;;;;;2.75;2.33;;;15.30;99.30;;;;;;6130089;29;20208;-68
2022/05/19 05:03:11;;;;;;;3.20;2.17;;;15.20;99.30;;;;;;6130262;29;20232;-66
2022/05/19 05:06:18;;;;;;;3.35;2.30;;;15.10;99.40;;;;;;6130621;29;20208;-68
2022/05/19 05:09:23;;;;;;;2.05;1.98;;;15.10;99.60;;;;;;6129168;29;20612;-67
2022/05/19 05:12:29;;;;;;;2.55;2.40;;;15.20;99.70;;;;;;6129486;29;20240;-69
2022/05/19 05:15:35;;;;;;;2.65;2.53;;;15.20;99.90;;;;;;6129804;29;20219;-66
2022/05/19 05:18:41;;;;;;;2.28;2.05;;;15.20;99.90;;;;;;6129316;29;20239;-67
2022/05/19 05:21:47;;;;;;;3.90;2.45;;;15.20;99.90;;;;;;6130802;29;20204;-68
2022/05/19 05:24:53;;;;;;;2.38;2.13;;;15.20;99.90;;;;;;6129663;29;20242;-67
2022/05/19 05:27:59;;;;;;;2.60;2.40;;;15.30;99.90;;;;;;6129570;29;20260;-67
2022/05/19 05:31:05;;;;;;;2.33;2.20;;;15.30;99.90;;;;;;6129589;29;20216;-67
2022/05/19 05:34:12;;;;;;;2.85;2.33;;;15.40;99.90;;;;;;6130260;29;20240;-67
2022/05/19 05:37:19;;;;;;;3.13;2.38;;;15.50;99.90;;;;;;6139943;29;20232;-66
2022/05/19 05:40:26;;;;;;;3.45;2.17;;;15.60;99.90;;;;;;6143996;29;20204;-65
2022/05/19 05:43:31;;;;;;;3.08;2.20;;;15.80;99.90;;;;;;6136206;29;20243;-68
2022/05/19 05:46:36;;;;;;;2.50;2.15;;;15.90;99.70;;;;;;6129023;29;20208;-67
2022/05/19 05:49:43;;;;;;;4.15;1.90;;;16.00;99.50;;;;;;6128648;29;20242;-68
2022/05/19 05:52:50;;;;;;;1.92;1.83;;;16.00;99.60;;;;;;6103716;29;20242;-67
2022/05/19 05:55:55;;;;;;;1.83;1.80;;;16.00;98.80;;;;;;6104924;29;20239;-68
2022/05/19 05:59:03;;;;;;;2.83;1.77;;;16.00;98.40;;;;;;6104761;29;20667;-69
2022/05/19 06:02:10;;;;;;;4.68;2.03;;;16.00;98.40;;;;;;6104455;29;20204;-68
2022/05/19 06:05:15;;;;;;;2.88;1.92;;;16.20;98.50;;;;;;6104844;29;20227;-69
2022/05/19 06:08:22;;;;;;;2.05;1.90;;;16.20;98.10;;;;;;6102773;29;20259;-68
2022/05/19 06:11:28;;;;;;;4.22;2.33;;;16.40;97.30;;;;;;6104704;29;20687;-69
2022/05/19 06:14:33;;;;;;;2.08;1.90;;;16.40;97.40;;;;;;6104310;29;20259;-68
2022/05/19 06:17:40;;;;;;;2.65;1.88;;;16.40;98.20;;;;;;6103026;29;20777;-68
2022/05/19 06:20:46;;;;;;;1.88;1.77;;;16.70;97.20;;;;;;6105380;29;20236;-67
2022/05/19 06:23:53;;;;;;;4.38;1.70;;;16.80;96.70;;;;;;6102853;29;20276;-68
2022/05/19 06:26:58;;;;;;;5.13;1.70;;;16.80;96.80;;;;;;6104172;29;20212;-68
2022/05/19 06:30:07;;;;;;;4.22;2.13;;;16.90;96.10;;;;;;6103947;29;20215;-70
2022/05/19 06:33:18;;;;;;;3.28;1.90;;;17.00;95.80;;;;;;6102808;29;20586;-68
2022/05/19 06:36:23;;;;;;;6.53;2.10;;;17.00;95.60;;;;;;6104142;29;20216;-68
2022/05/19 06:39:30;;;;;;;2.17;1.90;;;17.10;95.80;;;;;;6103761;29;20228;-68
2022/05/19 06:42:37;;;;;;;3.67;1.90;;;17.10;95.50;;;;;;6103878;29;20244;-67
2022/05/19 06:45:47;;;;;;;3.38;1.65;;;17.10;95.50;;;;;;6103705;29;20227;-67
2022/05/19 06:48:52;;;;;;;3.17;1.85;;;17.30;95.30;;;;;;6104243;29;20339;-67
2022/05/19 06:51:58;;;;;;;1.80;1.70;;;17.20;95.10;;;;;;6105836;29;20608;-67
2022/05/19 06:55:06;;;;;;;1.58;1.50;;;17.10;95.50;;;;;;6127277;29;20223;-68
2022/05/19 06:58:17;;;;;;;1.98;1.80;;;17.20;95.00;;;;;;6127214;29;20236;-67
2022/05/19 07:01:23;;;;;;;2.10;2.00;;;17.30;95.60;;;;;;6126746;29;20561;-68
2022/05/19 07:04:28;;;;;;;1.80;1.70;;;17.40;94.70;;;;;;6109875;29;20236;-68
2022/05/19 07:07:34;;;;;;;2.35;1.95;;;17.50;94.70;;;;;;6126336;29;20231;-68
2022/05/19 07:10:41;;;;;;;10.10;2.35;;;17.60;94.90;;;;;;6127411;29;20208;-67
2022/05/19 07:13:46;;;;;;;3.40;2.05;;;17.70;93.70;;;;;;6126472;29;20250;-67
2022/05/19 07:16:51;;;;;;;2.35;1.80;;;17.80;93.30;;;;;;6127167;29;20216;-67
2022/05/19 07:23:24;;;;;;;6.53;5.20;;;17.70;93.80;;;;;;6126669;29;20240;-68
2022/05/19 07:26:31;;;;;;;3.80;2.97;;;17.70;93.70;;;;;;6127328;29;20217;-67
2022/05/19 07:29:36;;;;;;;4.22;2.60;;;17.60;93.90;;;;;;6126587;29;20239;-68
2022/05/19 07:32:42;;;;;;;2.15;1.95;;;17.60;94.40;;;;;;6127432;29;20284;-67
2022/05/19 07:35:49;;;;;;;5.80;2.00;;;17.70;94.30;;;;;;6127567;29;20234;-67
2022/05/19 07:38:56;;;;;;;3.70;2.00;;;17.70;94.10;;;;;;6127617;29;20601;-66
2022/05/19 07:42:03;;;;;;;2.30;2.20;;;17.70;93.80;;;;;;6129997;29;20218;-67
2022/05/19 07:45:10;;;;;;;4.82;2.00;;;17.90;93.60;;;;;;6128515;29;20223;-67
2022/05/19 07:48:20;;;;;;;3.17;2.33;;;18.00;93.10;;;;;;6126843;29;20240;-69
2022/05/19 07:51:33;;;;;;;6.97;2.30;;;18.00;93.80;;;;;;6110576;29;20212;-67
2022/05/19 07:54:39;;;;;;;4.22;1.75;;;18.00;93.10;;;;;;6126423;29;20236;-67
2022/05/19 07:57:47;;;;;;;4.72;2.30;;;18.00;92.60;;;;;;6126566;29;20234;-67
2022/05/19 08:00:53;;;;;;;5.75;2.30;;;18.00;92.60;;;;;;6127385;29;20215;-68
2022/05/19 08:03:59;;;;;;;1.90;1.80;;;18.00;92.50;;;;;;6125993;29;20306;-69
2022/05/19 08:07:05;;;;;;;2.65;2.50;;;18.00;92.20;;;;;;6126390;29;20212;-67
2022/05/19 08:10:23;;;;;;;3.42;2.10;;;17.90;91.90;;;;;;6126562;29;20212;-68
2022/05/19 08:16:55;;;;;;;8.32;2.55;;;18.10;91.50;;;;;;6113876;29;20228;-68
2022/05/19 08:20:02;;;;;;;5.72;2.10;;;18.30;91.40;;;;;;6131701;29;20212;-67
2022/05/19 08:23:09;;;;;;;5.47;1.70;;;18.20;90.90;;;;;;6130467;29;20250;-67
2022/05/19 08:26:15;;;;;;;2.42;2.22;;;18.20;90.50;;;;;;6131064;29;20631;-68
2022/05/19 08:29:24;;;;;;;1.85;1.73;;;18.30;90.30;;;;;;6130269;29;20236;-67
2022/05/19 08:32:30;;;;;;;2.67;2.05;;;18.30;91.30;;;;;;6130465;29;20228;-67
2022/05/19 08:35:35;;;;;;;1.90;1.70;;;18.30;90.60;;;;;;6130832;29;20237;-68
2022/05/19 08:38:43;;;;;;;3.03;1.67;;;18.30;90.40;;;;;;6130429;29;20235;-67
2022/05/19 08:41:52;;;;;;;3.03;1.70;;;18.30;89.70;;;;;;6130999;29;20218;-68
2022/05/19 08:45:00;;;;;;;2.00;1.88;;;18.40;90.10;;;;;;6130270;29;20212;-68
2022/05/19 08:48:11;;;;;;;3.90;1.83;;;18.40;89.70;;;;;;6129982;29;20236;-67
2022/05/19 08:51:17;;;;;;;4.32;2.83;;;18.40;89.50;;;;;;6113464;29;20654;-67
2022/05/19 08:54:25;;;;;;;6.25;2.10;;;18.40;89.80;;;;;;6129314;29;20240;-66
2022/05/19 08:57:37;;;;;;;7.15;1.88;;;18.50;90.10;;;;;;6130041;29;20235;-67
2022/05/19 09:00:49;;;;;;;2.65;1.77;;;18.50;89.50;;;;;;6129640;29;20204;-66
2022/05/19 09:04:18;;;;;;;2.17;2.03;;;18.50;89.40;;;;;;6129730;29;20240;-68
2022/05/19 09:11:01;;;;;;;4.25;1.80;;;18.50;89.20;;;;;;6129962;29;20214;-67
2022/05/19 09:14:18;;;;;;;3.33;1.70;;;18.60;89.00;;;;;;6129537;29;20239;-68
2022/05/19 09:17:30;;;;;;;3.25;1.77;;;18.70;87.80;;;;;;6129708;29;20247;-66
2022/05/19 09:20:41;;;;;;;2.08;1.83;;;18.70;87.90;;;;;;6129788;29;20218;-68
2022/05/19 09:23:47;;;;;;;2.50;2.30;;;18.70;88.00;;;;;;6129718;29;20244;-66
2022/05/19 09:26:54;;;;;;;2.00;1.83;;;18.70;86.90;;;;;;6129615;29;20208;-68
2022/05/19 09:30:00;;;;;;;4.97;1.95;;;18.80;86.80;;;;;;6128959;29;20222;-67
2022/05/19 09:33:16;;;;;;;2.85;1.95;;;18.80;87.50;;;;;;6129354;29;20236;-67
2022/05/19 09:36:21;;;;;;;8.40;2.85;;;18.90;86.50;;;;;;6130197;29;20546;-68
2022/05/19 09:39:35;;;;;;;3.00;2.17;;;18.90;84.70;;;;;;6129311;29;20314;-69
2022/05/19 09:42:53;;;;;;;2.60;1.83;;;18.80;83.90;;;;;;6112155;29;20235;-67
2022/05/19 09:46:05;;;;;;;4.90;1.83;;;18.90;83.90;;;;;;6129026;29;20239;-68
2022/05/19 09:49:28;;;;;;;2.72;2.40;;;18.90;84.50;;;;;;6128507;29;20707;-68
2022/05/19 09:52:34;;;;;;;4.72;4.40;;;18.90;83.40;;;;;;6128813;29;20246;-68
2022/05/19 09:55:41;;;;;;;2.40;2.25;;;19.00;82.50;;;;;;6128902;29;20208;-68
2022/05/19 09:58:49;;;;;;;4.32;2.08;;;19.00;83.40;;;;;;6110971;29;20243;-67
2022/05/19 10:02:06;;;;;;;4.40;1.60;;;19.10;81.10;;;;;;6128280;29;20520;-68
2022/05/19 10:05:26;;;;;;;1.70;1.60;;;19.10;80.20;;;;;;6129125;29;20208;-67
2022/05/19 10:08:39;;;;;;;1.60;1.60;;;19.10;79.60;;;;;;6128387;29;20232;-68
2022/05/19 10:11:49;;;;;;;1.77;1.60;;;19.20;78.90;;;;;;6111495;29;20212;-69
2022/05/19 10:15:01;;;;;;;1.65;1.65;;;19.30;79.30;;;;;;6111304;29;20243;-67
2022/05/19 10:18:18;;;;;;;5.35;1.83;;;19.30;78.80;;;;;;6128518;29;20247;-68
2022/05/19 10:21:38;;;;;;;9.45;1.90;;;19.40;77.30;;;;;;6128872;29;20660;-67
2022/05/19 10:24:58;;;;;;;4.82;1.95;;;19.50;77.50;;;;;;6127604;29;20589;-68
2022/05/19 10:32:01;;;;;;;1.90;1.80;;;19.70;75.80;;;;;;6128509;29;20212;-69
2022/05/19 10:35:15;;;;;;;4.80;1.98;;;19.70;75.10;;;;;;6127642;29;20234;-67
2022/05/19 10:38:44;;;;;;;5.03;2.15;;;19.80;75.70;;;;;;6126881;29;20243;-67
2022/05/19 10:42:00;;;;;;;3.25;2.33;;;19.80;75.10;;;;;;6130056;29;20238;-68
2022/05/19 10:45:23;;;;;;;2.85;2.38;;;19.90;74.70;;;;;;6130187;29;20265;-69
2022/05/19 10:49:09;;;;;;;4.90;1.80;;;20.00;74.60;;;;;;6128436;29;20242;-68
2022/05/19 10:52:26;;;;;;;4.00;2.00;;;20.00;71.20;;;;;;6107605;29;20246;-67
2022/05/19 10:55:40;;;;;;;2.28;1.70;;;20.10;70.70;;;;;;6128906;29;20208;-68
2022/05/19 10:58:59;;;;;;;2.00;1.90;;;20.20;70.60;;;;;;6128878;29;20704;-68
2022/05/19 11:02:27;;;;;;;2.05;1.92;;;20.30;71.10;;;;;;6129042;29;20214;-68
2022/05/19 11:05:51;;;;;;;2.97;2.10;;;20.30;70.30;;;;;;6141070;29;20213;-66
2022/05/19 11:09:03;;;;;;;3.95;1.95;;;20.40;70.70;;;;;;6126778;29;20620;-66
2022/05/19 11:12:20;;;;;;;5.68;1.80;;;20.40;70.40;;;;;;6135001;29;20204;-68
2022/05/19 11:15:32;;;;;;;3.00;2.20;;;20.50;68.40;;;;;;6130447;29;20587;-67
2022/05/19 11:18:45;;;;;;;2.63;1.85;;;20.60;67.60;;;;;;6131200;29;20235;-67
2022/05/19 11:21:55;;;;;;;2.60;2.10;;;20.70;67.20;;;;;;6129964;29;20666;-68
2022/05/19 11:28:35;;;;;;;1.95;1.80;;;20.80;64.40;;;;;;6127971;29;20261;-68
2022/05/19 11:31:46;;;;;;;1.52;1.45;;;20.90;62.70;;;;;;6129824;29;20235;-68
2022/05/19 11:34:56;;;;;;;1.75;1.52;;;20.90;62.50;;;;;;6130136;29;20239;-67
2022/05/19 11:38:07;;;;;;;2.85;1.63;;;20.90;62.20;;;;;;6129032;29;20244;-67
2022/05/19 11:41:19;;;;;;;2.55;1.60;;;21.00;62.20;;;;;;6128891;29;20214;-67
2022/05/19 11:44:31;;;;;;;3.08;1.88;;;21.10;60.60;;;;;;6128393;29;20239;-68
2022/05/19 11:58:20;;;;;;;2.45;2.20;;;21.30;58.20;;;;;;6102891;29;20240;-68
2022/05/19 12:01:35;;;;;;;1.70;1.60;;;21.30;58.70;;;;;;6103343;29;20215;-69
2022/05/19 12:04:43;;;;;;;1.23;1.23;;;21.40;58.50;;;;;;6102623;29;20229;-68
2022/05/19 12:07:53;;;;;;;1.52;1.50;;;21.40;56.90;;;;;;6102336;29;20236;-67
2022/05/19 12:11:13;;;;;;;1.60;1.40;;;21.60;55.60;;;;;;6102770;29;20213;-68
2022/05/19 12:14:33;;;;;;;1.10;1.10;;;21.60;55.50;;;;;;6102641;29;20285;-68
2022/05/19 12:17:52;;;;;;;2.30;2.20;;;21.60;55.20;;;;;;6102013;29;20705;-67
2022/05/19 12:21:38;;;;;;;2.72;2.35;;;21.70;54.20;;;;;;6103019;29;20220;-68
2022/05/19 12:24:54;;;;;;;1.48;1.42;;;21.70;52.90;;;;;;6091325;29;20236;-68
2022/05/19 12:28:06;;;;;;;3.15;1.77;;;21.80;53.80;;;;;;6102201;29;20687;-68
2022/05/19 12:34:50;;;;;;;6.78;2.10;;;21.80;52.70;;;;;;6102670;29;20247;-67
2022/05/19 12:38:03;;;;;;;5.20;1.95;;;21.80;52.20;;;;;;6102237;29;20240;-68
2022/05/19 12:41:35;;;;;;;2.03;1.50;;;21.90;51.00;;;;;;6102584;29;20213;-68
2022/05/19 12:44:46;;;;;;;1.23;1.23;;;22.00;52.40;;;;;;6101672;29;20244;-70
2022/05/19 12:47:59;;;;;;;1.65;1.40;;;22.00;51.60;;;;;;6101375;29;20263;-68
2022/05/19 12:51:18;;;;;;;3.40;1.20;;;22.10;51.00;;;;;;6102011;29;20219;-67
2022/05/19 12:54:26;;;;;;;3.33;1.90;;;22.10;50.70;;;;;;6123094;29;20247;-67
2022/05/19 12:57:31;;;;;;;1.80;1.40;;;22.20;50.40;;;;;;6108072;29;20239;-68
2022/05/19 13:00:39;;;;;;;1.70;1.13;;;22.30;49.70;;;;;;6127073;29;20238;-68
2022/05/19 13:03:54;;;;;;;1.50;1.50;;;22.40;49.60;;;;;;6129326;29;20243;-66
2022/05/19 13:07:04;;;;;;;1.90;1.50;;;22.40;49.10;;;;;;6129673;29;20620;-68
2022/05/19 13:10:19;;;;;;;2.63;1.60;;;22.50;48.20;;;;;;6130020;29;20216;-68
2022/05/19 13:13:28;;;;;;;1.60;1.50;;;22.50;47.60;;;;;;6128912;29;20243;-68
2022/05/19 13:16:39;;;;;;;1.77;1.73;;;22.60;47.70;;;;;;6129771;29;20212;-67
2022/05/19 13:19:44;;;;;;;2.65;1.85;;;22.60;48.40;;;;;;6129534;29;20244;-67
2022/05/19 13:22:55;;;;;;;1.63;1.40;;;22.60;48.10;;;;;;6129366;29;20291;-68
2022/05/19 13:26:04;;;;;;;1.85;1.60;;;22.80;48.00;;;;;;6129646;29;20238;-68
2022/05/19 13:32:41;;;;;;;1.55;1.48;;;22.90;47.70;;;;;;6129051;29;20235;-68
2022/05/19 13:35:59;;;;;;;1.10;1.10;;;23.50;46.80;;;;;;6129157;29;20224;-67
2022/05/19 13:39:11;;;;;;;2.40;1.20;;;24.30;44.30;;;;;;6128807;29;20553;-67
2022/05/19 13:42:16;;;;;;;1.70;1.60;;;24.90;43.30;;;;;;6128114;29;20232;-67
2022/05/19 13:45:38;;;;;;;5.70;1.70;;;24.90;42.00;;;;;;6129284;29;20636;-66
2022/05/19 13:48:51;;;;;;;3.58;3.30;;;24.30;42.60;;;;;;6128139;29;20240;-67
2022/05/19 13:51:58;;;;;;;5.40;1.77;;;23.90;43.20;;;;;;6128413;29;20214;-68
2022/05/19 13:55:05;;;;;;;7.13;1.67;;;23.70;43.40;;;;;;6112340;29;20235;-67
2022/05/19 13:58:18;;;;;;;4.68;1.58;;;23.60;43.60;;;;;;6128817;29;20258;-68
2022/05/19 14:01:30;;;;;;;6.63;1.48;;;23.30;43.10;;;;;;6129150;29;20242;-68
2022/05/19 14:04:40;;;;;;;1.95;1.23;;;23.30;43.80;;;;;;6128190;29;20534;-68
2022/05/19 14:07:45;;;;;;;1.50;1.50;;;23.30;43.60;;;;;;6111398;29;20603;-67
2022/05/19 14:10:54;;;;;;;2.22;1.95;;;23.40;43.60;;;;;;6128386;29;20218;-68
2022/05/19 14:14:02;;;;;;;10.20;2.83;;;23.50;49.70;;;;;;6127804;29;20683;-67
2022/05/19 14:17:31;;;;;;;3.45;2.25;;;23.40;51.00;;;;;;6127680;29;20228;-65
2022/05/19 14:20:42;;;;;;;7.20;2.63;;;23.40;51.50;;;;;;6128131;29;20239;-67
2022/05/19 14:23:53;;;;;;;6.97;2.38;;;23.20;52.60;;;;;;6127655;29;20231;-67
2022/05/19 14:27:01;;;;;;;6.55;2.17;;;23.20;52.30;;;;;;6127466;29;20213;-68
2022/05/19 14:30:14;;;;;;;6.38;2.55;;;23.20;52.70;;;;;;6128162;29;20215;-68
2022/05/19 14:33:22;;;;;;;3.97;2.30;;;23.00;52.70;;;;;;6127605;29;20244;-67
2022/05/19 14:36:35;;;;;;;2.40;2.30;;;23.20;52.50;;;;;;6127942;29;20204;-68
2022/05/19 14:39:46;;;;;;;7.03;4.15;;;23.30;52.50;;;;;;6127720;29;20247;-68
2022/05/19 14:43:05;;;;;;;3.13;2.70;;;23.40;52.40;;;;;;6128499;29;20232;-68
2022/05/19 14:46:14;;;;;;;3.05;2.33;;;23.80;51.50;;;;;;6129872;29;20211;-68
2022/05/19 14:49:20;;;;;;;2.70;2.60;;;23.70;51.50;;;;;;6112610;29;20231;-67
2022/05/19 14:52:34;;;;;;;4.30;2.67;;;23.50;52.30;;;;;;6127154;29;20548;-67
2022/05/19 14:55:41;;;;;;;2.20;2.10;;;23.40;52.60;;;;;;6110857;29;20657;-68
2022/05/19 14:58:53;;;;;;;2.10;2.10;;;23.30;53.00;;;;;;6127050;29;20254;-69
2022/05/19 15:01:59;;;;;;;2.30;2.20;;;23.00;52.80;;;;;;6127543;29;20224;-67
2022/05/19 15:05:05;;;;;;;2.17;2.17;;;22.80;52.90;;;;;;6127562;29;20208;-68
2022/05/19 15:08:16;;;;;;;4.25;2.22;;;22.80;52.70;;;;;;6126937;29;20236;-68
2022/05/19 15:11:23;;;;;;;2.55;2.20;;;22.90;52.90;;;;;;6126523;29;20208;-68
2022/05/19 15:14:28;;;;;;;2.45;2.30;;;22.70;53.00;;;;;;6126491;29;20623;-68
2022/05/19 15:17:34;;;;;;;2.15;2.03;;;22.60;53.00;;;;;;6127043;29;20227;-67
2022/05/19 15:20:39;;;;;;;3.17;2.33;;;22.70;53.20;;;;;;6127162;29;20232;-67
2022/05/19 15:23:46;;;;;;;2.58;2.40;;;22.70;53.60;;;;;;6126118;29;20241;-69
2022/05/19 15:27:01;;;;;;;2.60;2.35;;;22.70;53.60;;;;;;6126698;29;20212;-69
2022/05/19 15:30:10;;;;;;;3.58;2.45;;;22.60;53.30;;;;;;6125969;29;20216;-66
2022/05/19 15:33:18;;;;;;;4.80;2.25;;;22.50;53.50;;;;;;6126275;29;20696;-66
2022/05/19 15:36:24;;;;;;;5.68;2.55;;;22.40;53.80;;;;;;6126800;29;20215;-66
2022/05/19 15:39:31;;;;;;;17.60;3.17;;;22.40;54.30;;;;;;6126337;29;20247;-67
2022/05/19 15:42:37;;;;;;;6.65;2.10;;;22.30;54.60;;;;;;6126106;29;20244;-68
2022/05/19 15:45:42;;;;;;;2.40;2.30;;;22.20;55.30;;;;;;6126128;29;20219;-66
2022/05/19 15:48:48;;;;;;;2.97;2.45;;;22.20;55.20;;;;;;6109467;29;20776;-67
2022/05/19 15:51:53;;;;;;;6.82;2.70;;;22.20;56.00;;;;;;6126878;29;20208;-67
2022/05/19 15:55:00;;;;;;;3.33;2.70;;;22.10;55.90;;;;;;6125869;29;20608;-67
2022/05/19 15:58:06;;;;;;;6.43;2.67;;;22.00;56.30;;;;;;6126538;29;20235;-67
2022/05/19 16:01:12;;;;;;;8.35;2.55;;;22.00;57.00;;;;;;6126498;29;20232;-67
2022/05/19 16:04:17;;;;;;;7.05;2.75;;;21.90;56.30;;;;;;6125860;29;20248;-68
2022/05/19 16:07:23;;;;;;;9.65;2.00;;;21.70;55.60;;;;;;6125699;29;20514;-68
2022/05/19 16:10:30;;;;;;;14.07;2.92;;;21.70;55.90;;;;;;6126957;29;20664;-65
2022/05/19 16:13:39;;;;;;;3.47;2.30;;;21.60;56.20;;;;;;6126174;29;20252;-67
2022/05/19 16:16:44;;;;;;;2.67;2.28;;;21.60;56.30;;;;;;6126352;29;20685;-66
2022/05/19 16:19:49;;;;;;;2.63;2.22;;;21.50;56.50;;;;;;6127138;29;20240;-67
2022/05/19 16:22:56;;;;;;;2.97;2.13;;;21.40;57.30;;;;;;6128823;29;20248;-65
2022/05/19 16:26:03;;;;;;;2.40;2.20;;;21.10;58.00;;;;;;6128930;29;20560;-67
2022/05/19 16:29:11;;;;;;;7.57;2.65;;;21.10;58.60;;;;;;6129023;29;20240;-66
2022/05/19 16:32:16;;;;;;;3.75;2.58;;;20.80;59.60;;;;;;6112914;29;20235;-66
2022/05/19 16:35:23;;;;;;;5.55;2.55;;;20.70;60.00;;;;;;6133532;29;20208;-67
2022/05/19 16:38:28;;;;;;;2.53;2.53;;;20.40;61.40;;;;;;6141888;29;20231;-68
2022/05/19 16:41:35;;;;;;;3.10;2.80;;;20.10;63.20;;;;;;6146277;29;20230;-68
2022/05/19 16:44:42;;;;;;;3.72;2.65;;;20.00;63.60;;;;;;6135835;29;20325;-67
2022/05/19 16:47:48;;;;;;;4.80;2.47;;;19.90;64.70;;;;;;6135855;29;20236;-68
2022/05/19 16:50:56;;;;;;;3.22;2.92;;;19.80;65.00;;;;;;6133814;29;20258;-66
2022/05/19 16:57:43;;;;;;;4.75;2.70;;;19.50;66.80;;;;;;6131779;29;20243;-65
2022/05/19 17:00:53;;;;;;;2.92;2.40;;;19.30;68.80;;;;;;6132489;29;20215;-67
2022/05/19 17:03:59;;;;;;;5.63;3.00;;;19.20;68.30;;;;;;6131692;29;20246;-68